Time;durP1;ratioP1;P1;durP2;ratioP2;P2;SDS_P1;SDS_P2;PMS_P1;PMS_P2;Temp;Humidity;BMP_temperature;BMP_pressure;BME280_temperature;BME280_humidity;BME280_pressure;Samples;Min_cycle;Max_cycle;Signal;HPM_P1;HPM_P2
2022/12/19 00:01:07;;;;;;;221.00;155.25;;;;;;;;;;5085302;28;20106;-75
2022/12/19 00:03:33;;;;;;;207.60;151.15;;;;;;;;;;5068633;28;20019;-75
2022/12/19 00:06:02;;;;;;;196.50;138.70;;;;;;;;;;5074903;28;23297;-75
2022/12/19 00:08:31;;;;;;;175.00;127.20;;;;;;;;;;5083479;28;20952;-75
2022/12/19 00:10:58;;;;;;;154.77;114.53;;;;;;;;;;5074344;28;20044;-75
2022/12/19 00:13:24;;;;;;;131.85;97.00;;;;;;;;;;5080557;28;20138;-75
2022/12/19 00:15:49;;;;;;;153.15;115.60;;;;;;;;;;5078726;28;20094;-75
2022/12/19 00:18:14;;;;;;;200.52;143.93;;;;;;;;;;5082046;28;20024;-76
2022/12/19 00:20:40;;;;;;;183.45;132.63;;;;;;;;;;5085749;28;20093;-77
2022/12/19 00:23:05;;;;;;;199.48;144.18;;;;;;;;;;5066742;28;20039;-76
2022/12/19 00:25:30;;;;;;;237.05;162.70;;;;;;;;;;5077025;28;20142;-76
2022/12/19 00:27:56;;;;;;;230.68;160.93;;;;;;;;;;5079966;28;20016;-77
2022/12/19 00:30:21;;;;;;;181.20;127.85;;;;;;;;;;5089380;28;20107;-75
2022/12/19 00:32:46;;;;;;;136.75;100.68;;;;;;;;;;5087267;28;20488;-75
2022/12/19 00:35:12;;;;;;;140.50;102.25;;;;;;;;;;5091065;28;20044;-75
2022/12/19 00:37:37;;;;;;;246.75;175.07;;;;;;;;;;5076220;28;20038;-76
2022/12/19 00:40:03;;;;;;;280.48;191.23;;;;;;;;;;5084359;28;20020;-75
2022/12/19 00:42:28;;;;;;;257.15;185.02;;;;;;;;;;5079323;28;20069;-75
2022/12/19 00:44:54;;;;;;;276.98;199.65;;;;;;;;;;5088502;28;20035;-77
2022/12/19 00:47:19;;;;;;;269.08;187.45;;;;;;;;;;5076280;28;20039;-77
2022/12/19 00:49:44;;;;;;;232.25;164.10;;;;;;;;;;5089059;28;20032;-76
2022/12/19 00:52:10;;;;;;;197.85;140.23;;;;;;;;;;5091810;28;20541;-77
2022/12/19 00:54:35;;;;;;;229.07;168.88;;;;;;;;;;5084017;28;20625;-76
2022/12/19 00:57:00;;;;;;;255.25;184.32;;;;;;;;;;5076499;28;20039;-75
2022/12/19 00:59:26;;;;;;;257.05;188.23;;;;;;;;;;5090512;28;20071;-75
2022/12/19 01:01:51;;;;;;;262.80;194.65;;;;;;;;;;5077960;28;20016;-75
2022/12/19 01:04:16;;;;;;;229.18;168.32;;;;;;;;;;5090768;28;20096;-76
2022/12/19 01:06:42;;;;;;;222.13;160.50;;;;;;;;;;5086750;28;20103;-75
2022/12/19 01:09:08;;;;;;;222.45;160.85;;;;;;;;;;5077380;28;20031;-76
2022/12/19 01:14:17;;;;;;;195.25;135.23;;;;;;;;;;5089760;28;20425;-77
2022/12/19 01:16:42;;;;;;;182.35;131.38;;;;;;;;;;5087310;28;20028;-75
2022/12/19 01:19:08;;;;;;;179.23;128.52;;;;;;;;;;5069000;28;20359;-75
2022/12/19 01:21:33;;;;;;;178.60;130.00;;;;;;;;;;5091474;28;20039;-75
2022/12/19 01:24:00;;;;;;;179.25;131.18;;;;;;;;;;5087462;28;20024;-74
2022/12/19 01:26:25;;;;;;;172.20;126.15;;;;;;;;;;5073938;28;20027;-75
2022/12/19 01:28:50;;;;;;;153.05;112.78;;;;;;;;;;5087148;28;20040;-74
2022/12/19 01:31:16;;;;;;;136.38;101.43;;;;;;;;;;5087445;28;20028;-75
2022/12/19 01:33:41;;;;;;;162.85;113.60;;;;;;;;;;5090154;28;20028;-75
2022/12/19 01:36:07;;;;;;;153.93;108.57;;;;;;;;;;5086191;28;20451;-78
2022/12/19 01:38:34;;;;;;;147.55;101.88;;;;;;;;;;5083326;28;20038;-74
2022/12/19 01:40:59;;;;;;;154.02;110.20;;;;;;;;;;5076657;28;20059;-73
2022/12/19 01:43:26;;;;;;;163.93;114.20;;;;;;;;;;5085574;28;20051;-73
2022/12/19 01:45:59;;;;;;;167.95;116.57;;;;;;;;;;5087133;28;20028;-75
2022/12/19 01:48:35;;;;;;;167.75;115.78;;;;;;;;;;5090131;28;20016;-75
2022/12/19 01:51:06;;;;;;;161.00;110.72;;;;;;;;;;5085620;28;20028;-73
2022/12/19 01:54:04;;;;;;;139.82;99.15;;;;;;;;;;5084515;28;20035;-75
2022/12/19 01:56:31;;;;;;;125.13;92.30;;;;;;;;;;4988833;28;20049;-74
2022/12/19 01:58:59;;;;;;;120.63;86.72;;;;;;;;;;5014649;28;20053;-74
2022/12/19 02:01:25;;;;;;;141.10;100.65;;;;;;;;;;5016844;28;20452;-75
2022/12/19 02:03:51;;;;;;;161.57;110.68;;;;;;;;;;5013365;28;20044;-73
2022/12/19 02:06:17;;;;;;;166.43;118.03;;;;;;;;;;5009631;28;20448;-73
2022/12/19 02:08:45;;;;;;;210.30;142.93;;;;;;;;;;5017708;28;20240;-73
2022/12/19 02:11:10;;;;;;;230.88;156.45;;;;;;;;;;5007379;28;20042;-74
2022/12/19 02:13:35;;;;;;;185.10;125.95;;;;;;;;;;5015594;28;20471;-73
2022/12/19 02:16:12;;;;;;;167.95;114.32;;;;;;;;;;5015492;28;20570;-80
2022/12/19 02:18:40;;;;;;;211.85;132.27;;;;;;;;;;5016587;28;20120;-74
2022/12/19 02:21:08;;;;;;;219.23;140.25;;;;;;;;;;5004299;28;20492;-74
2022/12/19 02:23:52;;;;;;;210.75;142.02;;;;;;;;;;5010977;28;20472;-74
2022/12/19 02:26:36;;;;;;;186.48;128.90;;;;;;;;;;5005460;28;20037;-74
2022/12/19 02:29:13;;;;;;;151.15;105.13;;;;;;;;;;5017453;28;20555;-75
2022/12/19 02:31:43;;;;;;;164.77;123.25;;;;;;;;;;5039184;28;20040;-73
2022/12/19 02:34:08;;;;;;;;;;;;;;;;;;5073614;28;20106;-75
2022/12/19 02:36:42;;;;;;;160.15;119.20;;;;;;;;;;5086839;28;20369;-74
2022/12/19 02:39:08;;;;;;;127.95;94.75;;;;;;;;;;5087113;28;20020;-76
2022/12/19 02:41:42;;;;;;;130.15;95.72;;;;;;;;;;5076410;28;20027;-79
2022/12/19 02:44:12;;;;;;;113.00;79.32;;;;;;;;;;5082416;28;20042;-73
2022/12/19 02:46:39;;;;;;;104.47;75.43;;;;;;;;;;5086408;28;20052;-74
2022/12/19 02:49:04;;;;;;;92.18;67.40;;;;;;;;;;5087487;28;20020;-75
2022/12/19 02:51:29;;;;;;;89.50;63.35;;;;;;;;;;5083851;28;20966;-74
2022/12/19 02:53:55;;;;;;;87.00;59.25;;;;;;;;;;5087475;28;20035;-78
2022/12/19 02:56:26;;;;;;;82.68;59.67;;;;;;;;;;5080430;28;20028;-74
2022/12/19 02:58:54;;;;;;;89.60;64.97;;;;;;;;;;5078328;28;20074;-74
2022/12/19 03:01:20;;;;;;;96.65;66.88;;;;;;;;;;5085504;28;20050;-73
2022/12/19 03:03:57;;;;;;;147.88;102.10;;;;;;;;;;5086637;28;20024;-74
2022/12/19 03:06:41;;;;;;;114.43;80.53;;;;;;;;;;5086904;28;20012;-77
2022/12/19 03:09:07;;;;;;;116.10;85.57;;;;;;;;;;5072284;28;20362;-76
2022/12/19 03:11:36;;;;;;;116.93;82.78;;;;;;;;;;5079823;28;20027;-77
2022/12/19 03:14:05;;;;;;;121.22;86.57;;;;;;;;;;5075863;28;20063;-75
2022/12/19 03:16:33;;;;;;;139.88;100.47;;;;;;;;;;5087267;28;20032;-75
2022/12/19 03:18:58;;;;;;;145.98;108.38;;;;;;;;;;5067995;28;20466;-75
2022/12/19 03:21:42;;;;;;;140.27;99.78;;;;;;;;;;5084945;28;20019;-74
2022/12/19 03:24:09;;;;;;;137.38;96.53;;;;;;;;;;5084487;28;20016;-75
2022/12/19 03:26:43;;;;;;;127.53;88.90;;;;;;;;;;5085212;28;20355;-75
2022/12/19 03:29:09;;;;;;;144.75;92.53;;;;;;;;;;5087089;28;20027;-76
2022/12/19 03:31:34;;;;;;;187.15;108.55;;;;;;;;;;5056590;28;20055;-75
2022/12/19 03:34:02;;;;;;;184.82;114.90;;;;;;;;;;5088538;28;20112;-76
2022/12/19 03:36:33;;;;;;;181.43;113.93;;;;;;;;;;5085467;28;20045;-76
2022/12/19 03:39:00;;;;;;;180.68;115.20;;;;;;;;;;5085817;28;20031;-75
2022/12/19 03:44:12;;;;;;;147.13;100.30;;;;;;;;;;5084101;28;20038;-75
2022/12/19 03:46:44;;;;;;;132.00;92.07;;;;;;;;;;5080612;28;20352;-76
2022/12/19 03:49:10;;;;;;;128.68;95.68;;;;;;;;;;5076669;28;20023;-76
2022/12/19 03:51:47;;;;;;;115.15;81.80;;;;;;;;;;5086744;28;20043;-75
2022/12/19 03:54:15;;;;;;;134.30;98.78;;;;;;;;;;5084725;28;20058;-75
2022/12/19 03:56:44;;;;;;;138.32;94.65;;;;;;;;;;5085727;28;20067;-75
2022/12/19 03:59:16;;;;;;;111.85;80.45;;;;;;;;;;5086969;28;20315;-76
2022/12/19 04:01:42;;;;;;;117.15;83.72;;;;;;;;;;5085414;28;20036;-76
2022/12/19 04:04:10;;;;;;;113.70;80.90;;;;;;;;;;5088862;28;20447;-75
2022/12/19 04:06:37;;;;;;;127.43;91.35;;;;;;;;;;5087947;28;20024;-75
2022/12/19 04:09:03;;;;;;;112.03;80.13;;;;;;;;;;5080788;28;20085;-75
2022/12/19 04:11:32;;;;;;;109.72;80.30;;;;;;;;;;5083174;28;20040;-75
2022/12/19 04:14:00;;;;;;;111.45;82.38;;;;;;;;;;5088751;28;20040;-75
2022/12/19 04:16:26;;;;;;;105.70;76.93;;;;;;;;;;5078648;28;20063;-75
2022/12/19 04:18:58;;;;;;;125.85;93.97;;;;;;;;;;5090885;28;20112;-75
2022/12/19 04:21:30;;;;;;;120.93;89.72;;;;;;;;;;5087520;28;20020;-74
2022/12/19 04:23:59;;;;;;;140.13;106.38;;;;;;;;;;5088363;28;20265;-73
2022/12/19 04:26:25;;;;;;;128.40;93.82;;;;;;;;;;5080763;28;20039;-77
2022/12/19 04:28:53;;;;;;;130.75;93.97;;;;;;;;;;5072799;28;20028;-77
2022/12/19 04:31:19;;;;;;;97.10;67.18;;;;;;;;;;5080684;28;20153;-73
2022/12/19 04:33:44;;;;;;;101.25;72.75;;;;;;;;;;5086008;28;20118;-73
2022/12/19 04:36:10;;;;;;;118.82;90.53;;;;;;;;;;5091117;28;20434;-75
2022/12/19 04:38:35;;;;;;;108.18;80.75;;;;;;;;;;5087288;28;20577;-75
2022/12/19 04:41:01;;;;;;;83.72;62.90;;;;;;;;;;5084744;28;20455;-77
2022/12/19 04:43:26;;;;;;;81.38;57.75;;;;;;;;;;5082111;28;20117;-76
2022/12/19 04:45:51;;;;;;;88.68;61.80;;;;;;;;;;5089909;28;20480;-75
2022/12/19 04:48:17;;;;;;;98.07;71.75;;;;;;;;;;5075938;28;21096;-75
2022/12/19 04:50:42;;;;;;;101.00;73.10;;;;;;;;;;5089327;28;20034;-75
2022/12/19 04:53:07;;;;;;;91.70;68.93;;;;;;;;;;5088814;28;20055;-74
2022/12/19 04:55:33;;;;;;;84.18;63.92;;;;;;;;;;5077116;28;20035;-75
2022/12/19 04:58:01;;;;;;;90.95;66.78;;;;;;;;;;5073476;28;20019;-75
2022/12/19 05:00:26;;;;;;;82.53;60.97;;;;;;;;;;5071094;28;20502;-75
2022/12/19 05:02:52;;;;;;;98.75;72.63;;;;;;;;;;5074670;28;20034;-77
2022/12/19 05:05:17;;;;;;;253.90;161.23;;;;;;;;;;5072338;28;20077;-75
2022/12/19 05:07:43;;;;;;;387.73;253.30;;;;;;;;;;5075106;28;20043;-75
2022/12/19 05:10:08;;;;;;;364.83;245.43;;;;;;;;;;5081194;28;20025;-75
2022/12/19 05:12:34;;;;;;;130.50;91.85;;;;;;;;;;5080979;28;20051;-74
2022/12/19 05:14:59;;;;;;;313.73;230.15;;;;;;;;;;5088950;28;20040;-75
2022/12/19 05:17:25;;;;;;;138.02;101.22;;;;;;;;;;5089151;28;20032;-75
2022/12/19 05:19:50;;;;;;;88.20;66.60;;;;;;;;;;5088881;28;20059;-76
2022/12/19 05:22:15;;;;;;;78.60;61.47;;;;;;;;;;5088305;28;20051;-76
2022/12/19 05:24:41;;;;;;;98.43;73.20;;;;;;;;;;5089532;28;20525;-76
2022/12/19 05:27:06;;;;;;;85.78;61.70;;;;;;;;;;5087801;28;20031;-75
2022/12/19 05:29:31;;;;;;;83.55;61.60;;;;;;;;;;5085753;28;20020;-73
2022/12/19 05:31:57;;;;;;;93.45;66.07;;;;;;;;;;5078248;28;20028;-72
2022/12/19 05:34:22;;;;;;;84.82;61.35;;;;;;;;;;5083398;28;20032;-72
2022/12/19 05:36:48;;;;;;;91.35;65.43;;;;;;;;;;5090129;28;20043;-76
2022/12/19 05:39:13;;;;;;;76.03;57.30;;;;;;;;;;5088794;28;20411;-77
2022/12/19 05:41:39;;;;;;;68.53;51.70;;;;;;;;;;5086132;28;20043;-77
2022/12/19 05:44:04;;;;;;;70.80;51.53;;;;;;;;;;5085964;28;20340;-74
2022/12/19 05:46:29;;;;;;;96.82;66.65;;;;;;;;;;5069434;28;20032;-73
2022/12/19 05:48:55;;;;;;;99.40;67.80;;;;;;;;;;5069428;28;20028;-74
2022/12/19 05:51:20;;;;;;;109.55;75.72;;;;;;;;;;5069294;28;20024;-75
2022/12/19 05:53:46;;;;;;;114.82;79.43;;;;;;;;;;5070524;28;20063;-75
2022/12/19 05:56:12;;;;;;;118.68;86.05;;;;;;;;;;5075643;28;20024;-74
2022/12/19 05:58:39;;;;;;;121.78;86.60;;;;;;;;;;5083662;28;20489;-75
2022/12/19 06:01:06;;;;;;;124.28;88.22;;;;;;;;;;5078239;28;21207;-73
2022/12/19 06:03:31;;;;;;;130.93;93.80;;;;;;;;;;5086519;28;20043;-74
2022/12/19 06:05:56;;;;;;;109.75;79.68;;;;;;;;;;5072297;28;20442;-73
2022/12/19 06:08:22;;;;;;;123.07;83.25;;;;;;;;;;5088937;28;20016;-74
2022/12/19 06:10:47;;;;;;;114.20;83.40;;;;;;;;;;5086828;28;20161;-75
2022/12/19 06:13:12;;;;;;;125.20;91.88;;;;;;;;;;5086368;28;20035;-78
2022/12/19 06:15:38;;;;;;;113.20;85.97;;;;;;;;;;5086362;28;20035;-76
2022/12/19 06:18:03;;;;;;;125.53;90.68;;;;;;;;;;5086095;28;20038;-75
2022/12/19 06:20:28;;;;;;;126.88;94.18;;;;;;;;;;5077943;28;20470;-77
2022/12/19 06:22:54;;;;;;;101.30;76.15;;;;;;;;;;5083684;28;20036;-74
2022/12/19 06:25:19;;;;;;;101.78;77.97;;;;;;;;;;5087317;28;20024;-75
2022/12/19 06:27:44;;;;;;;131.93;100.30;;;;;;;;;;5086013;28;20042;-72
2022/12/19 06:30:10;;;;;;;154.98;113.30;;;;;;;;;;5086302;28;20104;-75
2022/12/19 06:32:35;;;;;;;179.73;130.57;;;;;;;;;;5085513;28;20051;-73
2022/12/19 06:35:01;;;;;;;219.98;167.85;;;;;;;;;;5087138;28;20032;-76
2022/12/19 06:37:26;;;;;;;208.38;152.52;;;;;;;;;;5073674;28;20115;-77
2022/12/19 06:39:51;;;;;;;191.00;138.45;;;;;;;;;;5086601;28;20040;-76
2022/12/19 06:42:22;;;;;;;193.30;135.52;;;;;;;;;;5086174;28;20034;-77
2022/12/19 06:44:48;;;;;;;207.52;146.88;;;;;;;;;;5079855;28;20036;-76
2022/12/19 06:47:14;;;;;;;203.00;151.85;;;;;;;;;;5087610;28;20055;-72
2022/12/19 06:49:39;;;;;;;197.00;146.65;;;;;;;;;;5087360;28;20124;-73
2022/12/19 06:52:05;;;;;;;186.32;144.98;;;;;;;;;;5085240;28;20351;-73
2022/12/19 06:54:30;;;;;;;162.52;124.78;;;;;;;;;;5087155;28;20034;-72
2022/12/19 06:56:55;;;;;;;146.38;112.05;;;;;;;;;;5087480;28;20077;-72
2022/12/19 06:59:21;;;;;;;145.18;113.47;;;;;;;;;;5085142;28;20067;-78
2022/12/19 07:01:56;;;;;;;133.75;101.85;;;;;;;;;;5086140;28;20023;-75
2022/12/19 07:04:42;;;;;;;154.05;117.32;;;;;;;;;;5068834;28;20102;-76
2022/12/19 07:07:07;;;;;;;149.45;113.60;;;;;;;;;;5069891;28;20120;-76
2022/12/19 07:09:33;;;;;;;157.02;122.85;;;;;;;;;;5070678;28;20566;-75
2022/12/19 07:11:59;;;;;;;167.82;128.35;;;;;;;;;;5086743;28;20031;-74
2022/12/19 07:14:25;;;;;;;152.15;114.22;;;;;;;;;;5084612;28;20655;-75
2022/12/19 07:16:51;;;;;;;172.45;124.93;;;;;;;;;;5087039;28;20047;-75
2022/12/19 07:19:16;;;;;;;152.38;111.55;;;;;;;;;;5087618;28;20028;-75
2022/12/19 07:21:42;;;;;;;114.85;88.50;;;;;;;;;;5074829;28;20039;-76
2022/12/19 07:24:09;;;;;;;119.47;90.57;;;;;;;;;;5068894;28;20028;-76
2022/12/19 07:26:35;;;;;;;120.35;91.28;;;;;;;;;;5087626;28;20042;-74
2022/12/19 07:29:00;;;;;;;165.90;127.15;;;;;;;;;;5083102;28;20435;-74
2022/12/19 07:31:26;;;;;;;126.15;98.78;;;;;;;;;;5086015;28;20170;-74
2022/12/19 07:33:51;;;;;;;110.50;85.80;;;;;;;;;;5086300;28;20024;-76
2022/12/19 07:36:16;;;;;;;99.40;79.32;;;;;;;;;;5086342;28;20035;-79
2022/12/19 07:38:43;;;;;;;128.02;93.53;;;;;;;;;;5071900;28;20039;-77
2022/12/19 07:41:08;;;;;;;123.75;101.13;;;;;;;;;;5053718;28;21179;-75
2022/12/19 07:43:34;;;;;;;131.85;105.30;;;;;;;;;;5069382;28;20024;-73
2022/12/19 07:45:59;;;;;;;131.48;102.28;;;;;;;;;;5068742;28;20035;-74
2022/12/19 07:48:24;;;;;;;129.77;99.38;;;;;;;;;;5069823;28;20016;-74
2022/12/19 07:50:50;;;;;;;144.75;110.47;;;;;;;;;;5070232;28;20023;-75
2022/12/19 07:53:15;;;;;;;136.60;107.93;;;;;;;;;;5069506;28;20373;-75
2022/12/19 07:55:41;;;;;;;140.85;106.97;;;;;;;;;;5069431;28;21608;-75
2022/12/19 07:58:09;;;;;;;144.98;112.22;;;;;;;;;;5069545;28;20028;-73
2022/12/19 08:00:36;;;;;;;149.63;117.25;;;;;;;;;;5069106;28;20656;-74
2022/12/19 08:03:01;;;;;;;158.02;120.25;;;;;;;;;;5070275;28;20016;-76
2022/12/19 08:05:26;;;;;;;160.18;129.75;;;;;;;;;;5069422;28;20043;-78
2022/12/19 08:07:53;;;;;;;143.10;112.85;;;;;;;;;;5069519;28;20023;-74
2022/12/19 08:10:18;;;;;;;146.65;112.38;;;;;;;;;;5070845;28;20439;-73
2022/12/19 08:12:44;;;;;;;143.40;113.63;;;;;;;;;;5068974;28;20126;-72
2022/12/19 08:15:11;;;;;;;159.57;125.72;;;;;;;;;;5068528;28;20343;-73
2022/12/19 08:17:37;;;;;;;163.43;127.45;;;;;;;;;;5071845;28;20043;-80
2022/12/19 08:20:03;;;;;;;179.43;135.05;;;;;;;;;;5069859;28;20036;-75
2022/12/19 08:22:29;;;;;;;175.65;130.25;;;;;;;;;;5069118;28;20031;-73
2022/12/19 08:24:54;;;;;;;165.57;125.28;;;;;;;;;;5069027;28;20427;-73
2022/12/19 08:27:19;;;;;;;117.82;90.57;;;;;;;;;;5069012;28;20032;-76
2022/12/19 08:29:46;;;;;;;71.90;56.83;;;;;;;;;;5067688;28;20019;-72
2022/12/19 08:32:11;;;;;;;107.13;82.13;;;;;;;;;;5068201;28;21218;-75
2022/12/19 08:34:37;;;;;;;93.43;70.95;;;;;;;;;;5069687;28;20031;-76
2022/12/19 08:37:02;;;;;;;108.90;85.13;;;;;;;;;;5070365;28;20028;-74
2022/12/19 08:39:28;;;;;;;93.03;73.38;;;;;;;;;;5072442;28;20028;-75
2022/12/19 08:41:54;;;;;;;78.15;60.53;;;;;;;;;;5069092;28;20351;-76
2022/12/19 08:44:19;;;;;;;67.30;52.55;;;;;;;;;;5066838;28;20039;-75
2022/12/19 08:46:45;;;;;;;91.70;70.32;;;;;;;;;;5070666;28;20067;-80
2022/12/19 08:49:10;;;;;;;110.22;88.28;;;;;;;;;;5069691;28;20055;-74
2022/12/19 08:51:35;;;;;;;115.65;87.90;;;;;;;;;;5076334;28;20388;-78
2022/12/19 08:54:01;;;;;;;111.45;86.60;;;;;;;;;;5073873;28;20038;-77
2022/12/19 08:56:26;;;;;;;119.90;92.60;;;;;;;;;;5075911;28;20032;-76
2022/12/19 08:58:52;;;;;;;123.63;97.63;;;;;;;;;;5074017;28;20031;-76
2022/12/19 09:01:18;;;;;;;141.07;116.28;;;;;;;;;;5071698;28;20062;-76
2022/12/19 09:03:44;;;;;;;146.30;116.75;;;;;;;;;;5077238;28;20032;-74
2022/12/19 09:06:11;;;;;;;145.15;111.40;;;;;;;;;;5073575;28;20035;-77
2022/12/19 09:08:36;;;;;;;116.07;89.13;;;;;;;;;;5072833;28;20070;-77
2022/12/19 09:11:06;;;;;;;96.40;76.78;;;;;;;;;;5074445;28;20466;-77
2022/12/19 09:13:32;;;;;;;130.75;101.60;;;;;;;;;;5052406;28;20055;-76
2022/12/19 09:15:58;;;;;;;111.78;88.22;;;;;;;;;;5070706;28;20032;-75
2022/12/19 09:18:23;;;;;;;181.75;145.43;;;;;;;;;;5069532;28;20393;-77
2022/12/19 09:20:51;;;;;;;95.60;79.07;;;;;;;;;;5068200;28;20024;-76
2022/12/19 09:23:17;;;;;;;76.82;62.85;;;;;;;;;;5075824;28;20065;-79
2022/12/19 09:25:42;;;;;;;73.05;59.58;;;;;;;;;;5074782;28;20101;-77
2022/12/19 09:28:07;;;;;;;66.65;51.03;;;;;;;;;;5078670;28;20036;-76
2022/12/19 09:30:33;;;;;;;74.43;57.03;;;;;;;;;;5082477;28;20027;-77
2022/12/19 09:32:58;;;;;;;61.50;49.95;;;;;;;;;;5080300;28;20029;-80
2022/12/19 09:35:23;;;;;;;65.20;51.80;;;;;;;;;;5079187;28;20106;-77
2022/12/19 09:37:49;;;;;;;81.30;61.88;;;;;;;;;;5076061;28;20065;-76
2022/12/19 09:40:16;;;;;;;114.47;88.38;;;;;;;;;;5082057;28;20036;-76
2022/12/19 09:42:44;;;;;;;155.18;121.72;;;;;;;;;;5082193;28;20136;-76
2022/12/19 09:45:10;;;;;;;175.18;139.52;;;;;;;;;;5077619;28;20024;-78
2022/12/19 09:47:36;;;;;;;140.93;117.72;;;;;;;;;;5073685;28;20453;-77
2022/12/19 09:50:11;;;;;;;64.68;51.25;;;;;;;;;;5071425;28;20469;-77
2022/12/19 09:52:40;;;;;;;61.75;48.53;;;;;;;;;;5080871;28;20020;-77
2022/12/19 09:55:05;;;;;;;70.40;55.03;;;;;;;;;;5081227;28;20303;-78
2022/12/19 09:57:30;;;;;;;52.85;42.47;;;;;;;;;;5079359;28;20035;-74
2022/12/19 09:59:58;;;;;;;85.03;60.00;;;;;;;;;;5081955;28;20034;-75
2022/12/19 10:02:23;;;;;;;96.70;73.68;;;;;;;;;;5080486;28;20024;-78
2022/12/19 10:04:51;;;;;;;80.32;63.28;;;;;;;;;;5080166;28;22463;-76
2022/12/19 10:07:18;;;;;;;72.88;54.55;;;;;;;;;;5081337;28;20109;-76
2022/12/19 10:09:44;;;;;;;58.53;45.50;;;;;;;;;;5081689;28;20024;-77
2022/12/19 10:12:16;;;;;;;59.40;45.22;;;;;;;;;;5081284;28;20059;-76
2022/12/19 10:14:47;;;;;;;72.40;56.63;;;;;;;;;;5087328;28;20028;-75
2022/12/19 10:17:20;;;;;;;83.95;65.13;;;;;;;;;;5085462;28;20039;-78
2022/12/19 10:20:01;;;;;;;78.85;58.78;;;;;;;;;;5089356;28;20042;-79
2022/12/19 10:22:47;;;;;;;83.88;65.85;;;;;;;;;;5087898;28;20426;-76
2022/12/19 10:25:19;;;;;;;65.60;50.83;;;;;;;;;;5089387;28;20027;-78
2022/12/19 10:27:44;;;;;;;107.90;74.95;;;;;;;;;;5085588;28;20032;-75
2022/12/19 10:30:19;;;;;;;80.72;61.65;;;;;;;;;;5085652;28;20026;-75
2022/12/19 10:32:48;;;;;;;63.88;48.97;;;;;;;;;;5088184;28;20023;-75
2022/12/19 10:35:15;;;;;;;95.47;73.68;;;;;;;;;;5087857;28;20039;-76
2022/12/19 10:37:54;;;;;;;89.45;66.82;;;;;;;;;;5087255;28;20020;-78
2022/12/19 10:40:22;;;;;;;106.80;79.30;;;;;;;;;;5085870;28;20343;-76
2022/12/19 10:42:50;;;;;;;101.15;70.50;;;;;;;;;;5086426;28;20039;-77
2022/12/19 10:45:17;;;;;;;63.70;49.50;;;;;;;;;;5084913;28;20355;-76
2022/12/19 10:47:43;;;;;;;96.45;68.47;;;;;;;;;;5087165;28;20471;-75
2022/12/19 10:50:12;;;;;;;67.80;50.53;;;;;;;;;;5085426;28;20110;-76
2022/12/19 10:53:06;;;;;;;62.28;46.20;;;;;;;;;;5088704;28;20023;-75
2022/12/19 10:55:41;;;;;;;127.78;82.53;;;;;;;;;;5063857;28;20488;-75
2022/12/19 10:58:39;;;;;;;137.05;92.03;;;;;;;;;;5085151;28;20043;-77
2022/12/19 11:01:09;;;;;;;71.20;52.35;;;;;;;;;;5011033;28;20231;-75
2022/12/19 11:03:35;;;;;;;67.20;50.05;;;;;;;;;;5017044;28;20072;-75
2022/12/19 11:06:01;;;;;;;65.68;47.70;;;;;;;;;;5003309;28;20033;-77
2022/12/19 11:08:34;;;;;;;85.35;58.35;;;;;;;;;;5002352;28;20348;-76
2022/12/19 11:11:02;;;;;;;106.70;75.53;;;;;;;;;;5016322;28;20038;-77
2022/12/19 11:13:33;;;;;;;84.80;61.17;;;;;;;;;;5012717;28;20053;-78
2022/12/19 11:16:00;;;;;;;93.13;68.38;;;;;;;;;;4999272;28;20039;-77
2022/12/19 11:18:33;;;;;;;85.10;62.72;;;;;;;;;;5013698;28;20886;-76
2022/12/19 11:21:00;;;;;;;83.28;62.05;;;;;;;;;;5015653;28;20037;-82
2022/12/19 11:23:27;;;;;;;132.82;96.78;;;;;;;;;;5013871;28;20069;-76
2022/12/19 11:25:57;;;;;;;104.57;75.72;;;;;;;;;;5014721;28;20531;-76
2022/12/19 11:28:25;;;;;;;87.22;61.88;;;;;;;;;;5016516;28;20025;-75
2022/12/19 11:30:59;;;;;;;122.97;90.65;;;;;;;;;;5016270;28;20072;-76
2022/12/19 11:33:25;;;;;;;118.65;86.30;;;;;;;;;;5015789;28;20034;-75
2022/12/19 11:35:52;;;;;;;94.88;67.00;;;;;;;;;;5026240;28;20051;-75
2022/12/19 11:38:24;;;;;;;86.00;64.85;;;;;;;;;;5077077;28;20024;-76
2022/12/19 11:40:53;;;;;;;74.20;53.88;;;;;;;;;;5078149;28;20913;-75
2022/12/19 11:43:27;;;;;;;70.10;53.72;;;;;;;;;;5059435;28;20500;-75
2022/12/19 11:46:01;;;;;;;64.47;46.80;;;;;;;;;;5076523;28;20585;-75
2022/12/19 11:48:38;;;;;;;63.78;48.20;;;;;;;;;;5077853;28;20426;-76
2022/12/19 11:51:06;;;;;;;72.47;54.42;;;;;;;;;;5078097;28;20016;-76
2022/12/19 11:53:43;;;;;;;71.88;54.72;;;;;;;;;;5076601;28;20024;-75
2022/12/19 11:56:13;;;;;;;64.40;47.40;;;;;;;;;;5077030;28;20077;-75
2022/12/19 11:58:39;;;;;;;63.70;48.83;;;;;;;;;;5077376;28;20028;-78
2022/12/19 12:01:11;;;;;;;54.00;39.47;;;;;;;;;;5077558;28;20380;-76
2022/12/19 12:03:55;;;;;;;54.40;41.20;;;;;;;;;;5078035;28;20419;-75
2022/12/19 12:06:21;;;;;;;60.58;46.45;;;;;;;;;;5076918;28;20070;-77
2022/12/19 12:08:53;;;;;;;67.88;53.63;;;;;;;;;;5080046;28;20038;-77
2022/12/19 12:11:22;;;;;;;85.55;65.75;;;;;;;;;;5075810;28;20024;-76
2022/12/19 12:14:06;;;;;;;70.28;53.80;;;;;;;;;;5068270;28;20071;-76
2022/12/19 12:16:39;;;;;;;71.80;53.10;;;;;;;;;;5085143;28;20023;-76
2022/12/19 12:19:24;;;;;;;61.90;45.38;;;;;;;;;;5083626;28;20038;-75
2022/12/19 12:22:07;;;;;;;66.57;49.53;;;;;;;;;;5084889;28;20041;-76
2022/12/19 12:24:40;;;;;;;71.18;51.53;;;;;;;;;;5088034;28;20422;-75
2022/12/19 12:27:09;;;;;;;74.63;56.47;;;;;;;;;;5088830;28;20020;-75
2022/12/19 12:29:57;;;;;;;77.93;55.60;;;;;;;;;;5090759;28;20050;-74
2022/12/19 12:32:32;;;;;;;67.88;49.72;;;;;;;;;;5080829;28;20032;-75
2022/12/19 12:35:36;;;;;;;58.42;43.65;;;;;;;;;;5088505;28;20036;-76
2022/12/19 12:38:27;;;;;;;88.90;66.82;;;;;;;;;;5036825;28;20033;-78
2022/12/19 12:44:15;;;;;;;109.50;78.07;;;;;;;;;;4925900;29;20039;-76
2022/12/19 12:46:55;;;;;;;173.57;127.43;;;;;;;;;;4925237;29;20415;-77
2022/12/19 12:49:41;;;;;;;74.68;55.17;;;;;;;;;;4925042;29;20027;-76
2022/12/19 12:52:24;;;;;;;126.22;93.85;;;;;;;;;;4924862;29;20482;-77
2022/12/19 12:54:50;;;;;;;110.55;83.00;;;;;;;;;;4925119;29;20079;-76
2022/12/19 12:57:17;;;;;;;127.70;91.40;;;;;;;;;;4926247;29;20078;-76
2022/12/19 12:59:44;;;;;;;135.43;100.07;;;;;;;;;;4925904;29;20090;-77
2022/12/19 13:02:15;;;;;;;116.40;82.90;;;;;;;;;;4925755;29;20028;-77
2022/12/19 13:04:42;;;;;;;97.78;67.72;;;;;;;;;;4924676;29;20043;-76
2022/12/19 13:07:26;;;;;;;94.30;66.00;;;;;;;;;;4925926;29;20031;-75
2022/12/19 13:09:53;;;;;;;76.07;55.53;;;;;;;;;;4949380;28;20141;-74
2022/12/19 13:15:28;;;;;;;100.20;78.97;;;;;;;;;;4976313;28;20049;-76
2022/12/19 13:17:53;;;;;;;65.78;51.20;;;;;;;;;;5050378;28;20044;-77
2022/12/19 13:20:28;;;;;;;71.57;52.13;;;;;;;;;;5086808;28;20366;-77
2022/12/19 13:22:57;;;;;;;66.97;50.83;;;;;;;;;;5087940;28;20040;-77
2022/12/19 13:25:25;;;;;;;80.20;60.83;;;;;;;;;;5087910;28;20159;-76
2022/12/19 13:27:54;;;;;;;76.70;54.95;;;;;;;;;;5090183;28;20031;-76
2022/12/19 13:30:20;;;;;;;104.22;80.47;;;;;;;;;;5086579;28;20381;-76
2022/12/19 13:32:45;;;;;;;153.88;110.80;;;;;;;;;;5086649;28;20096;-75
2022/12/19 13:35:10;;;;;;;125.53;96.45;;;;;;;;;;5086427;28;20093;-75
2022/12/19 13:37:41;;;;;;;121.45;94.57;;;;;;;;;;5086676;28;20106;-75
2022/12/19 13:40:26;;;;;;;107.47;83.65;;;;;;;;;;5060649;28;20347;-76
2022/12/19 13:45:55;;;;;;;79.22;54.92;;;;;;;;;;5087247;28;20081;-78
2022/12/19 13:48:27;;;;;;;87.30;65.40;;;;;;;;;;5089190;28;20020;-77
2022/12/19 13:50:53;;;;;;;87.20;70.63;;;;;;;;;;5087387;28;20111;-75
2022/12/19 13:53:21;;;;;;;63.45;46.75;;;;;;;;;;5073533;28;20021;-76
2022/12/19 13:55:47;;;;;;;52.70;42.83;;;;;;;;;;5074050;28;20031;-77
2022/12/19 13:58:31;;;;;;;57.15;42.88;;;;;;;;;;5074736;28;20029;-76
2022/12/19 14:01:00;;;;;;;43.00;32.88;;;;;;;;;;5075439;28;20495;-76
2022/12/19 14:03:33;;;;;;;53.38;41.42;;;;;;;;;;5085743;28;20077;-77
2022/12/19 14:06:07;;;;;;;51.80;40.55;;;;;;;;;;5085682;28;20077;-78
2022/12/19 14:08:32;;;;;;;53.38;39.75;;;;;;;;;;5070369;28;20043;-75
2022/12/19 14:10:58;;;;;;;41.70;33.58;;;;;;;;;;5085645;28;20039;-76
2022/12/19 14:16:13;;;;;;;59.42;46.28;;;;;;;;;;5084638;28;20042;-77
2022/12/19 14:18:38;;;;;;;43.72;34.13;;;;;;;;;;5085410;28;20027;-75
2022/12/19 14:21:15;;;;;;;45.85;34.20;;;;;;;;;;5086356;28;20236;-74
2022/12/19 14:23:40;;;;;;;41.92;32.55;;;;;;;;;;5086756;28;20047;-77
2022/12/19 14:26:13;;;;;;;51.30;41.88;;;;;;;;;;5072194;28;20358;-75
2022/12/19 14:28:54;;;;;;;68.20;52.50;;;;;;;;;;5085668;28;20024;-76
2022/12/19 14:31:20;;;;;;;58.78;44.10;;;;;;;;;;5086921;28;20487;-76